Time;durP1;ratioP1;P1;durP2;ratioP2;P2;SDS_P1;SDS_P2;PMS_P1;PMS_P2;Temp;Humidity;BMP_temperature;BMP_pressure;BME280_temperature;BME280_humidity;BME280_pressure;Samples;Min_cycle;Max_cycle;Signal;HPM_P1;HPM_P2
2023/07/21 00:02:26;;;;;;;0.00;0.00;;;;;;;18.85;56.35;101378.84;5065199;28;20075;-76
2023/07/21 00:04:53;;;;;;;0.00;0.00;;;;;;;18.84;56.55;101376.22;5063962;28;20493;-78
2023/07/21 00:07:19;;;;;;;0.10;0.10;;;;;;;18.81;56.62;101379.06;5066082;28;20076;-78
2023/07/21 00:09:48;;;;;;;0.08;0.08;;;;;;;18.76;56.73;101376.59;5063835;28;20052;-78
2023/07/21 00:12:14;;;;;;;0.05;0.05;;;;;;;18.73;56.68;101374.06;5064381;28;20033;-78
2023/07/21 00:14:40;;;;;;;0.00;0.00;;;;;;;18.69;56.25;101375.13;5064887;28;20444;-77
2023/07/21 00:17:06;;;;;;;0.10;0.10;;;;;;;18.67;57.01;101375.19;5063044;28;20036;-78
2023/07/21 00:19:34;;;;;;;0.10;0.10;;;;;;;18.66;57.12;101373.44;5067168;28;20339;-77
2023/07/21 00:22:00;;;;;;;0.00;0.00;;;;;;;18.67;57.34;101369.81;5063557;28;20071;-77
2023/07/21 00:24:26;;;;;;;0.00;0.00;;;;;;;18.66;57.27;101373.44;5064983;28;20080;-76
2023/07/21 00:26:53;;;;;;;0.00;0.00;;;;;;;18.66;57.20;101368.06;5062934;28;20082;-79
2023/07/21 00:29:19;;;;;;;0.10;0.10;;;;;;;18.66;57.54;101372.59;5067004;28;20032;-80
2023/07/21 00:31:49;;;;;;;0.10;0.10;;;;;;;18.66;57.84;101375.28;5066504;28;20029;-80
2023/07/21 00:34:15;;;;;;;0.10;0.10;;;;;;;18.66;57.84;101372.59;5069606;28;20028;-79
2023/07/21 00:36:41;;;;;;;0.00;0.00;;;;;;;18.66;58.19;101368.06;5067984;28;20110;-79
2023/07/21 00:39:08;;;;;;;0.10;0.10;;;;;;;18.68;57.99;101370.69;5068405;28;20040;-78
2023/07/21 00:41:37;;;;;;;0.10;0.10;;;;;;;18.68;58.10;101371.56;5085317;28;20048;-75
2023/07/21 00:44:08;;;;;;;0.00;0.00;;;;;;;18.67;58.26;101369.81;5072988;28;20083;-79
2023/07/21 00:46:35;;;;;;;0.10;0.10;;;;;;;18.65;58.25;101358.28;5068569;28;20052;-78
2023/07/21 00:49:02;;;;;;;0.00;0.00;;;;;;;18.62;58.17;101363.81;5074022;28;20030;-77
2023/07/21 00:51:28;;;;;;;0.00;0.00;;;;;;;18.61;57.93;101364.75;5080183;28;20020;-79
2023/07/21 00:53:55;;;;;;;0.00;0.00;;;;;;;18.57;58.03;101361.31;5075910;28;20128;-80
2023/07/21 00:56:21;;;;;;;0.10;0.10;;;;;;;18.54;58.04;101363.25;5075888;28;20549;-81
2023/07/21 00:58:48;;;;;;;0.10;0.10;;;;;;;18.51;57.99;101363.41;5072186;28;20024;-78
2023/07/21 01:01:14;;;;;;;0.00;0.00;;;;;;;18.47;57.91;101361.78;5076941;28;20055;-77
2023/07/21 01:03:41;;;;;;;0.00;0.00;;;;;;;18.43;57.79;101353.91;5065948;28;20021;-78
2023/07/21 01:06:09;;;;;;;0.00;0.00;;;;;;;18.38;57.82;101347.88;5070540;28;20024;-80
2023/07/21 01:08:38;;;;;;;0.17;0.17;;;;;;;18.37;58.09;101340.75;5072159;28;20092;-76
2023/07/21 01:11:06;;;;;;;0.08;0.08;;;;;;;18.31;58.12;101342.84;5064940;28;20033;-78
2023/07/21 01:13:33;;;;;;;0.20;0.20;;;;;;;18.26;57.97;101343.91;5065632;28;20633;-81
2023/07/21 01:16:01;;;;;;;0.10;0.10;;;;;;;18.22;57.92;101336.09;5073837;28;20082;-79
2023/07/21 01:18:28;;;;;;;0.10;0.10;;;;;;;18.18;58.02;101339.81;5066712;28;20032;-79
2023/07/21 01:20:55;;;;;;;0.10;0.10;;;;;;;18.13;58.13;101332.00;5066190;28;20108;-79
2023/07/21 01:23:41;;;;;;;0.08;0.08;;;;;;;18.13;58.12;101331.13;5069111;28;20440;-79
2023/07/21 01:26:10;;;;;;;0.00;0.00;;;;;;;18.01;58.17;101328.03;5067330;28;20025;-79
2023/07/21 01:28:40;;;;;;;0.10;0.10;;;;;;;17.97;58.13;101326.44;5067828;28;20030;-79
2023/07/21 01:31:08;;;;;;;0.10;0.10;;;;;;;17.91;58.25;101327.53;5070125;28;20406;-76
2023/07/21 01:33:35;;;;;;;0.10;0.10;;;;;;;17.87;58.24;101325.03;5073374;28;20516;-79
2023/07/21 01:36:03;;;;;;;0.00;0.00;;;;;;;17.82;58.58;101327.03;5069383;28;20418;-78
2023/07/21 01:38:30;;;;;;;0.00;0.00;;;;;;;17.78;58.82;101326.31;5071805;28;20436;-79
2023/07/21 01:40:58;;;;;;;0.38;0.25;;;;;;;17.71;58.96;101316.81;5068695;28;20056;-80
2023/07/21 01:43:24;;;;;;;0.00;0.00;;;;;;;17.66;59.47;101314.31;5068730;28;20063;-79
2023/07/21 01:45:50;;;;;;;0.00;0.00;;;;;;;17.60;59.65;101311.88;5069839;28;20029;-79
2023/07/21 01:48:17;;;;;;;0.10;0.10;;;;;;;17.54;59.46;101315.69;5070647;28;20082;-79
2023/07/21 01:50:46;;;;;;;0.00;0.00;;;;;;;17.49;59.57;101309.66;5069298;28;20040;-79
2023/07/21 01:53:18;;;;;;;0.10;0.10;;;;;;;17.45;59.56;101308.91;5087562;28;20028;-76
2023/07/21 01:56:05;;;;;;;0.10;0.10;;;;;;;17.42;59.83;101303.69;5083129;28;20069;-78
2023/07/21 01:58:33;;;;;;;0.00;0.00;;;;;;;17.38;59.61;101302.03;5069318;28;20025;-77
2023/07/21 02:01:01;;;;;;;0.00;0.00;;;;;;;17.36;59.29;101303.94;5070619;28;20091;-79
2023/07/21 02:03:28;;;;;;;0.00;0.00;;;;;;;17.37;59.33;101311.03;5068724;28;20024;-78
2023/07/21 02:05:54;;;;;;;0.10;0.10;;;;;;;17.37;59.99;101305.69;5068641;28;20077;-78
2023/07/21 02:08:21;;;;;;;0.10;0.10;;;;;;;17.37;59.90;101307.47;5069611;28;20071;-79
2023/07/21 02:10:48;;;;;;;0.10;0.10;;;;;;;17.38;60.14;101310.09;5066554;28;20033;-77
2023/07/21 02:13:15;;;;;;;0.20;0.20;;;;;;;17.40;60.40;101307.38;5075300;28;20036;-80
2023/07/21 02:15:41;;;;;;;0.10;0.10;;;;;;;17.41;59.86;101307.28;5077051;28;20021;-80
2023/07/21 02:18:07;;;;;;;0.52;0.52;;;;;;;17.43;60.10;101308.13;5075751;28;20539;-78
2023/07/21 02:20:33;;;;;;;0.00;0.00;;;;;;;17.45;60.20;101308.91;5081288;28;20135;-79
2023/07/21 02:23:00;;;;;;;0.10;0.10;;;;;;;17.48;60.74;101307.03;5075104;28;20043;-76
2023/07/21 02:25:26;;;;;;;0.10;0.10;;;;;;;17.50;60.85;101302.50;5078908;28;20051;-76
2023/07/21 02:27:52;;;;;;;0.00;0.00;;;;;;;17.52;60.86;101301.50;5074968;28;20020;-79
2023/07/21 02:30:18;;;;;;;0.20;0.20;;;;;;;17.54;60.97;101301.44;5074119;28;20742;-78
2023/07/21 02:32:44;;;;;;;0.10;0.10;;;;;;;17.57;61.30;101306.66;5073174;28;20116;-79
2023/07/21 02:35:11;;;;;;;0.00;0.00;;;;;;;17.60;60.94;101301.16;5073517;28;20025;-79
2023/07/21 02:37:37;;;;;;;0.10;0.10;;;;;;;17.62;60.80;101304.66;5074281;28;20116;-79
2023/07/21 02:40:06;;;;;;;0.10;0.10;;;;;;;17.63;60.86;101311.75;5073581;28;20036;-78
2023/07/21 02:42:32;;;;;;;0.00;0.00;;;;;;;17.68;60.74;101308.88;5075057;28;20016;-77
2023/07/21 02:44:58;;;;;;;0.10;0.10;;;;;;;17.72;60.64;101310.47;5074935;28;20032;-79
2023/07/21 02:47:25;;;;;;;0.52;0.52;;;;;;;17.74;61.07;101301.44;5074155;28;20074;-79
2023/07/21 02:49:51;;;;;;;0.00;0.00;;;;;;;17.76;60.75;101304.94;5076747;28;20074;-79
2023/07/21 02:52:17;;;;;;;0.00;0.00;;;;;;;17.79;60.81;101299.47;5073015;28;20029;-80
2023/07/21 02:54:43;;;;;;;0.00;0.00;;;;;;;17.83;60.22;101296.63;5077596;28;20036;-82
2023/07/21 02:57:09;;;;;;;0.10;0.10;;;;;;;17.86;60.12;101296.50;5075501;28;20103;-81
2023/07/21 02:59:36;;;;;;;0.10;0.10;;;;;;;17.87;59.90;101288.41;5075015;28;20050;-81
2023/07/21 03:02:03;;;;;;;0.00;0.00;;;;;;;17.88;60.21;101284.78;5084628;28;20017;-81
2023/07/21 03:04:31;;;;;;;0.00;0.00;;;;;;;17.88;59.85;101284.78;5079544;28;20039;-76
2023/07/21 03:06:58;;;;;;;0.20;0.20;;;;;;;17.87;60.18;101287.50;5092726;28;20040;-77
2023/07/21 03:09:24;;;;;;;0.10;0.10;;;;;;;17.84;59.74;101283.16;5083696;28;20037;-80
2023/07/21 03:11:50;;;;;;;0.10;0.10;;;;;;;17.81;60.01;101287.78;5077436;28;20044;-80
2023/07/21 03:14:16;;;;;;;0.03;0.03;;;;;;;17.76;60.36;101286.16;5076955;28;20031;-80
2023/07/21 03:16:43;;;;;;;0.00;0.00;;;;;;;17.71;60.76;101287.31;5073000;28;20036;-79
2023/07/21 03:19:09;;;;;;;0.10;0.10;;;;;;;17.64;60.64;101286.69;5075696;28;20032;-80
2023/07/21 03:21:35;;;;;;;0.52;0.40;;;;;;;17.57;61.06;101285.22;5075066;28;20029;-80
2023/07/21 03:24:02;;;;;;;0.00;0.00;;;;;;;17.49;60.96;101277.50;5077613;28;20059;-80
2023/07/21 03:26:29;;;;;;;0.10;0.10;;;;;;;17.43;61.18;101281.31;5078212;28;20029;-78
2023/07/21 03:28:55;;;;;;;0.10;0.10;;;;;;;17.38;61.54;101277.09;5077539;28;20017;-78
2023/07/21 03:31:22;;;;;;;0.10;0.10;;;;;;;17.29;61.49;101270.31;5076138;28;20040;-78
2023/07/21 03:33:48;;;;;;;0.38;0.38;;;;;;;17.24;61.53;101272.31;5077009;28;20115;-75
2023/07/21 03:36:14;;;;;;;0.17;0.17;;;;;;;17.20;61.40;101276.06;5075397;28;20074;-77
2023/07/21 03:38:41;;;;;;;0.00;0.00;;;;;;;17.17;61.06;101276.16;5074310;28;20025;-78
2023/07/21 03:41:08;;;;;;;0.10;0.10;;;;;;;17.14;60.92;101278.00;5073846;28;20111;-78
2023/07/21 03:43:37;;;;;;;0.10;0.10;;;;;;;17.10;61.27;101279.09;5073661;28;20093;-76
2023/07/21 03:46:04;;;;;;;0.10;0.10;;;;;;;17.09;61.66;101273.81;5064458;28;20050;-76
2023/07/21 03:48:32;;;;;;;0.10;0.10;;;;;;;17.04;62.08;101273.97;5065150;28;20035;-76
2023/07/21 03:50:59;;;;;;;1.15;1.05;;;;;;;17.01;61.91;101271.44;5068392;28;20051;-78
2023/07/21 03:53:26;;;;;;;0.10;0.10;;;;;;;16.98;61.83;101266.19;5073374;28;20027;-77
2023/07/21 03:55:53;;;;;;;0.00;0.00;;;;;;;16.95;62.01;101261.84;5070638;28;20417;-76
2023/07/21 03:58:20;;;;;;;0.10;0.10;;;;;;;16.93;62.03;101268.19;5071501;28;20024;-76
2023/07/21 04:00:46;;;;;;;0.10;0.10;;;;;;;16.91;62.49;101265.56;5072744;28;20119;-78
2023/07/21 04:03:13;;;;;;;2.58;2.40;;;;;;;16.91;62.36;101267.34;5073659;28;20401;-79
2023/07/21 04:05:39;;;;;;;0.10;0.10;;;;;;;16.92;62.42;101261.09;5073259;28;20028;-78
2023/07/21 04:08:06;;;;;;;0.47;0.47;;;;;;;16.93;62.32;101262.84;5060295;28;20498;-78
2023/07/21 04:10:32;;;;;;;0.10;0.10;;;;;;;16.95;62.59;101255.63;5064800;28;20097;-77
2023/07/21 04:12:59;;;;;;;0.10;0.10;;;;;;;16.96;63.06;101262.72;5065431;28;20035;-79
2023/07/21 04:15:26;;;;;;;0.10;0.10;;;;;;;16.97;62.75;101264.44;5064325;28;20044;-80
2023/07/21 04:17:54;;;;;;;0.00;0.00;;;;;;;16.99;63.15;101254.56;5073365;28;20055;-75
2023/07/21 04:20:22;;;;;;;0.00;0.00;;;;;;;17.00;63.22;101250.94;5079951;28;20020;-76
2023/07/21 04:22:49;;;;;;;0.10;0.10;;;;;;;17.03;62.92;101253.50;5067333;28;20107;-78
2023/07/21 04:25:17;;;;;;;0.30;0.30;;;;;;;17.09;63.00;101250.56;5062788;28;20025;-78
2023/07/21 04:27:47;;;;;;;0.10;0.10;;;;;;;17.14;63.30;101250.38;5063570;28;20114;-78
2023/07/21 04:30:13;;;;;;;0.10;0.10;;;;;;;17.21;63.16;101243.84;5061478;28;20021;-79
2023/07/21 04:32:39;;;;;;;0.00;0.00;;;;;;;17.26;63.18;101249.88;5064473;28;20032;-77
2023/07/21 04:35:08;;;;;;;0.13;0.13;;;;;;;17.34;63.47;101251.38;5066278;28;20501;-78
2023/07/21 04:37:35;;;;;;;0.10;0.10;;;;;;;17.39;63.50;101260.94;5074635;28;20025;-79
2023/07/21 04:40:02;;;;;;;0.00;0.00;;;;;;;17.45;63.38;101260.69;5072200;28;20032;-76
2023/07/21 04:42:28;;;;;;;0.10;0.10;;;;;;;17.51;63.64;101258.69;5072356;28;20050;-78
2023/07/21 04:44:54;;;;;;;0.00;0.00;;;;;;;17.56;63.57;101251.34;5074263;28;20032;-76
2023/07/21 04:47:22;;;;;;;0.10;0.10;;;;;;;17.62;63.37;101251.94;5075663;28;20075;-78
2023/07/21 04:49:48;;;;;;;0.30;0.30;;;;;;;17.65;63.22;101242.91;5087679;28;20036;-78
2023/07/21 04:52:14;;;;;;;0.10;0.10;;;;;;;17.72;63.14;101247.06;5085763;28;20036;-75
2023/07/21 04:54:41;;;;;;;0.08;0.08;;;;;;;17.76;63.45;101243.28;5085570;28;20108;-77
2023/07/21 04:57:07;;;;;;;0.05;0.05;;;;;;;17.81;63.44;101248.47;5076860;28;20039;-79
2023/07/21 04:59:33;;;;;;;0.00;0.00;;;;;;;17.86;63.37;101240.22;5074587;28;20162;-78
2023/07/21 05:01:59;;;;;;;0.10;0.10;;;;;;;17.89;63.34;101246.28;5076292;28;20032;-78
2023/07/21 05:04:25;;;;;;;0.10;0.10;;;;;;;17.93;63.14;101244.34;5076592;28;20036;-78
2023/07/21 05:06:51;;;;;;;0.30;0.30;;;;;;;17.97;63.33;101246.00;5076991;28;20028;-79
2023/07/21 05:09:19;;;;;;;0.08;0.08;;;;;;;18.02;63.13;101248.47;5075734;28;20029;-78
2023/07/21 05:11:46;;;;;;;0.10;0.10;;;;;;;18.07;63.19;101244.66;5075313;28;20041;-78
2023/07/21 05:14:13;;;;;;;0.00;0.00;;;;;;;18.14;63.44;101247.91;5076315;28;20047;-77
2023/07/21 05:16:39;;;;;;;0.00;0.00;;;;;;;18.23;63.57;101247.50;5077138;28;20035;-79
2023/07/21 05:19:05;;;;;;;0.30;0.25;;;;;;;18.31;63.72;101244.47;5077029;28;20032;-79
2023/07/21 05:21:32;;;;;;;0.28;0.28;;;;;;;18.39;63.82;101236.06;5078888;28;20031;-79
2023/07/21 05:23:58;;;;;;;0.10;0.10;;;;;;;18.43;63.82;101235.00;5080559;28;20218;-79
2023/07/21 05:26:24;;;;;;;0.03;0.03;;;;;;;18.49;63.61;101231.13;5077803;28;20039;-79
2023/07/21 05:28:50;;;;;;;0.10;0.10;;;;;;;18.56;63.43;101221.84;5077121;28;20039;-79
2023/07/21 05:31:16;;;;;;;0.10;0.10;;;;;;;18.63;63.41;101222.41;5085797;28;20062;-76
2023/07/21 05:33:42;;;;;;;0.20;0.20;;;;;;;18.69;63.41;101222.13;5093359;28;20039;-78
2023/07/21 05:36:10;;;;;;;0.10;0.10;;;;;;;18.74;63.23;101226.34;5077624;28;20094;-79
2023/07/21 05:38:37;;;;;;;0.13;0.13;;;;;;;18.78;62.86;101226.19;5077411;28;20052;-79
2023/07/21 05:41:05;;;;;;;0.10;0.10;;;;;;;18.83;62.60;101229.50;5076868;28;20020;-79
2023/07/21 05:43:31;;;;;;;0.00;0.00;;;;;;;18.87;62.46;101225.75;5070977;28;20505;-79
2023/07/21 05:45:58;;;;;;;0.10;0.10;;;;;;;18.92;62.16;101226.44;5074864;28;20134;-80
2023/07/21 05:48:24;;;;;;;0.10;0.10;;;;;;;18.95;61.85;101222.72;5074798;28;20032;-80
2023/07/21 05:50:51;;;;;;;0.10;0.10;;;;;;;19.00;61.83;101226.91;5075425;28;20490;-79
2023/07/21 05:53:19;;;;;;;0.10;0.10;;;;;;;19.03;61.58;101221.41;5075783;28;20039;-78
2023/07/21 05:55:47;;;;;;;0.10;0.10;;;;;;;19.08;61.42;101224.72;5075685;28;20562;-79
2023/07/21 05:58:14;;;;;;;0.10;0.10;;;;;;;19.12;61.69;101221.91;5075497;28;20039;-79
2023/07/21 06:00:40;;;;;;;0.40;0.40;;;;;;;19.17;61.96;101220.69;5070494;28;20107;-78
2023/07/21 06:03:06;;;;;;;0.10;0.10;;;;;;;19.23;61.92;101216.84;5071478;28;20024;-78
2023/07/21 06:05:36;;;;;;;0.10;0.10;;;;;;;19.28;61.83;101219.28;5074511;28;20036;-76
2023/07/21 06:08:04;;;;;;;0.10;0.10;;;;;;;19.32;61.82;101221.75;5076351;28;20549;-78
2023/07/21 06:10:31;;;;;;;0.00;0.00;;;;;;;19.38;61.85;101221.44;5073258;28;20033;-78
2023/07/21 06:12:57;;;;;;;0.00;0.00;;;;;;;19.43;61.64;101217.63;5087665;28;20058;-77
2023/07/21 06:15:24;;;;;;;0.80;0.47;;;;;;;19.48;61.40;101220.97;5078700;28;20051;-78
2023/07/21 06:17:52;;;;;;;0.00;0.00;;;;;;;19.52;61.20;101222.53;5076941;28;20033;-79
2023/07/21 06:20:20;;;;;;;0.17;0.17;;;;;;;19.55;61.20;101227.75;5075482;28;20028;-78
2023/07/21 06:22:47;;;;;;;0.03;0.03;;;;;;;19.57;61.02;101231.22;5076826;28;20036;-79
2023/07/21 06:25:13;;;;;;;0.30;0.30;;;;;;;19.59;61.13;101229.34;5077373;28;20402;-78
2023/07/21 06:27:39;;;;;;;0.05;0.05;;;;;;;19.61;60.94;101231.94;5077164;28;20032;-78
2023/07/21 06:30:06;;;;;;;0.35;0.35;;;;;;;19.64;60.77;101232.66;5075899;28;20036;-77
2023/07/21 06:32:32;;;;;;;0.10;0.10;;;;;;;19.68;60.68;101236.91;5068594;28;20410;-78
2023/07/21 06:34:59;;;;;;;0.10;0.10;;;;;;;19.75;60.79;101239.28;5077634;28;20413;-78
2023/07/21 06:37:25;;;;;;;0.10;0.10;;;;;;;19.80;60.56;101238.13;5081338;28;20021;-76
2023/07/21 06:39:52;;;;;;;0.10;0.10;;;;;;;19.86;60.27;101234.25;5081303;28;20060;-76
2023/07/21 06:42:18;;;;;;;1.35;1.13;;;;;;;19.91;59.93;101229.50;5083283;28;20029;-77
2023/07/21 06:44:44;;;;;;;0.03;0.03;;;;;;;19.96;59.41;101232.81;5082510;28;20025;-78
2023/07/21 06:47:11;;;;;;;0.52;0.52;;;;;;;20.03;59.09;101223.44;5083260;28;20029;-77
2023/07/21 06:49:38;;;;;;;0.00;0.00;;;;;;;20.11;59.02;101227.56;5081662;28;20090;-78
2023/07/21 06:52:05;;;;;;;0.00;0.00;;;;;;;20.15;58.67;101227.31;5080946;28;20025;-75
2023/07/21 06:54:31;;;;;;;0.00;0.00;;;;;;;20.22;58.82;101227.84;5081774;28;20035;-75
2023/07/21 06:56:58;;;;;;;0.10;0.10;;;;;;;20.27;58.57;101223.06;5076557;28;20402;-76
2023/07/21 06:59:25;;;;;;;0.10;0.10;;;;;;;20.37;58.76;101220.75;5074976;28;20035;-78
2023/07/21 07:01:52;;;;;;;0.08;0.08;;;;;;;20.45;58.48;101214.94;5075128;28;20033;-78
2023/07/21 07:04:18;;;;;;;0.00;0.00;;;;;;;20.52;58.38;101224.41;5075837;28;20036;-78
2023/07/21 07:06:44;;;;;;;0.10;0.10;;;;;;;20.58;57.40;101215.13;5074586;28;20094;-79
2023/07/21 07:09:10;;;;;;;0.80;0.40;;;;;;;20.64;56.99;101217.47;5074850;28;20033;-79
2023/07/21 07:11:37;;;;;;;0.10;0.10;;;;;;;20.74;57.35;101217.88;5074902;28;20044;-79
2023/07/21 07:14:03;;;;;;;0.05;0.05;;;;;;;20.81;56.61;101224.59;5080245;28;20022;-76
2023/07/21 07:16:29;;;;;;;0.35;0.35;;;;;;;20.92;57.06;101215.91;5088145;28;20028;-75
2023/07/21 07:18:55;;;;;;;0.00;0.00;;;;;;;20.98;56.65;101221.81;5089166;28;20032;-79
2023/07/21 07:21:21;;;;;;;0.10;0.10;;;;;;;21.07;56.40;101215.06;5081201;28;20494;-79
2023/07/21 07:23:47;;;;;;;0.65;0.65;;;;;;;21.15;55.21;101214.59;5075423;28;20028;-80
2023/07/21 07:26:13;;;;;;;0.10;0.10;;;;;;;21.23;55.16;101215.00;5075235;28;20032;-79
2023/07/21 07:28:39;;;;;;;0.10;0.10;;;;;;;21.31;54.67;101218.09;5076038;28;20033;-79
2023/07/21 07:31:06;;;;;;;0.08;0.08;;;;;;;21.43;54.65;101215.63;5073928;28;20186;-79
2023/07/21 07:33:32;;;;;;;0.10;0.10;;;;;;;21.53;53.61;101213.25;5077453;28;20028;-78
2023/07/21 07:36:00;;;;;;;0.05;0.05;;;;;;;21.57;50.97;101214.84;5074283;28;20036;-79
2023/07/21 07:38:28;;;;;;;0.10;0.10;;;;;;;21.68;53.54;101220.44;5076510;28;20029;-78
2023/07/21 07:40:59;;;;;;;0.10;0.10;;;;;;;21.74;51.67;101224.59;5077345;28;20081;-78
2023/07/21 07:43:26;;;;;;;0.28;0.28;;;;;;;21.81;51.61;101221.44;5078164;28;20056;-79
2023/07/21 07:45:52;;;;;;;0.10;0.10;;;;;;;21.88;50.53;101227.34;5076682;28;20026;-78
2023/07/21 07:48:18;;;;;;;1.35;0.70;;;;;;;21.94;52.51;101216.16;5072201;28;20056;-79
2023/07/21 07:50:44;;;;;;;4.00;0.70;;;;;;;21.97;50.77;101224.06;5075908;28;20036;-79
2023/07/21 07:53:11;;;;;;;0.20;0.20;;;;;;;21.92;48.41;101223.47;5075872;28;20040;-84
2023/07/21 07:55:38;;;;;;;0.10;0.10;;;;;;;21.95;50.27;101214.31;5087318;28;20067;-77
2023/07/21 07:58:06;;;;;;;0.10;0.10;;;;;;;21.94;50.56;101221.56;5084809;28;20063;-77
2023/07/21 08:00:35;;;;;;;0.30;0.30;;;;;;;22.00;50.55;101216.75;5082159;28;20431;-79
2023/07/21 08:03:04;;;;;;;0.10;0.10;;;;;;;22.11;50.08;101216.94;5083519;28;20016;-80
2023/07/21 08:05:30;;;;;;;0.10;0.10;;;;;;;22.22;49.89;101217.13;5076099;28;20028;-80
2023/07/21 08:08:01;;;;;;;0.20;0.20;;;;;;;22.36;48.75;101220.78;5075680;28;20028;-80
2023/07/21 08:10:28;;;;;;;0.20;0.20;;;;;;;22.41;45.40;101215.97;5072874;28;20055;-80
2023/07/21 08:12:56;;;;;;;0.10;0.10;;;;;;;22.53;48.16;101211.59;5075134;28;20024;-80
2023/07/21 08:15:22;;;;;;;0.00;0.00;;;;;;;22.57;46.36;101211.31;5082745;28;20031;-78
2023/07/21 08:17:49;;;;;;;0.65;0.50;;;;;;;22.67;45.76;101214.28;5085214;28;20158;-77
2023/07/21 08:20:18;;;;;;;0.00;0.00;;;;;;;22.72;44.77;101214.84;5073863;28;20036;-80
2023/07/21 08:22:45;;;;;;;0.10;0.10;;;;;;;22.72;44.81;101209.44;5074612;28;20024;-81
2023/07/21 08:25:12;;;;;;;0.00;0.00;;;;;;;22.81;46.55;101209.81;5074543;28;20029;-80
2023/07/21 08:27:38;;;;;;;0.00;0.00;;;;;;;22.82;43.97;101217.81;5076232;28;20029;-80
2023/07/21 08:30:05;;;;;;;0.00;0.00;;;;;;;22.91;46.41;101221.75;5079153;28;20029;-79
2023/07/21 08:32:32;;;;;;;0.20;0.20;;;;;;;22.93;44.80;101219.81;5078944;28;20059;-79
2023/07/21 08:34:58;;;;;;;0.05;0.05;;;;;;;22.93;44.58;101212.56;5079383;28;20370;-80
2023/07/21 08:37:24;;;;;;;0.10;0.10;;;;;;;22.98;44.59;101216.78;5077960;28;20050;-79
2023/07/21 08:39:50;;;;;;;0.10;0.10;;;;;;;22.97;44.66;101215.94;5077945;28;20028;-80
2023/07/21 08:42:17;;;;;;;0.10;0.10;;;;;;;23.01;45.46;101217.47;5089784;28;20104;-80
2023/07/21 08:44:44;;;;;;;0.90;0.90;;;;;;;23.06;46.26;101211.75;5084150;28;20033;-80
2023/07/21 08:47:10;;;;;;;0.10;0.10;;;;;;;23.05;46.23;101213.59;5080380;28;20486;-80
2023/07/21 08:49:39;;;;;;;0.08;0.08;;;;;;;23.13;45.86;101215.78;5077910;28;20029;-80
2023/07/21 08:52:08;;;;;;;0.00;0.00;;;;;;;23.24;45.64;101213.25;5079321;28;20490;-81
2023/07/21 08:54:37;;;;;;;0.00;0.00;;;;;;;23.33;45.52;101210.88;5078094;28;20547;-80
2023/07/21 08:57:03;;;;;;;0.65;0.65;;;;;;;23.43;45.70;101212.84;5078563;28;20021;-82
2023/07/21 08:59:29;;;;;;;0.10;0.10;;;;;;;23.40;46.14;101204.09;5078997;28;20035;-77
2023/07/21 09:01:55;;;;;;;0.10;0.10;;;;;;;23.31;46.76;101208.28;5080724;28;20158;-81
2023/07/21 09:04:24;;;;;;;0.30;0.30;;;;;;;23.10;45.74;101200.66;5080153;28;20058;-80
2023/07/21 09:06:52;;;;;;;0.20;0.20;;;;;;;22.96;46.54;101197.13;5083483;28;20060;-82
2023/07/21 09:09:20;;;;;;;0.10;0.10;;;;;;;22.81;46.52;101199.88;5105458;28;20063;-81
2023/07/21 09:11:47;;;;;;;0.10;0.10;;;;;;;22.71;45.33;101198.75;5096053;28;20031;-79
2023/07/21 09:14:14;;;;;;;0.20;0.20;;;;;;;22.61;45.50;101199.34;5080859;28;20092;-80
2023/07/21 09:16:40;;;;;;;0.10;0.10;;;;;;;22.58;45.65;101199.56;5079335;28;20111;-80
2023/07/21 09:19:08;;;;;;;0.10;0.10;;;;;;;22.54;45.34;101206.13;5077217;28;20035;-80
2023/07/21 09:21:36;;;;;;;0.00;0.00;;;;;;;22.57;46.09;101197.81;5077719;28;20031;-80
2023/07/21 09:24:08;;;;;;;0.10;0.10;;;;;;;22.71;45.08;101198.75;5077368;28;20028;-79
2023/07/21 09:26:34;;;;;;;0.10;0.10;;;;;;;22.85;45.83;101198.69;5077064;28;20035;-79
2023/07/21 09:29:01;;;;;;;0.10;0.10;;;;;;;22.97;45.81;101198.84;5078261;28;20059;-79
2023/07/21 09:31:28;;;;;;;0.00;0.00;;;;;;;23.02;44.94;101200.28;5079372;28;20025;-77
2023/07/21 09:34:03;;;;;;;0.10;0.10;;;;;;;23.07;45.43;101192.72;5069499;28;20047;-79
2023/07/21 09:36:29;;;;;;;0.00;0.00;;;;;;;23.20;45.90;101195.53;5069219;28;20036;-81
2023/07/21 09:38:56;;;;;;;0.10;0.10;;;;;;;23.33;44.75;101189.25;5075886;28;20032;-80
2023/07/21 09:41:24;;;;;;;0.00;0.00;;;;;;;23.42;45.23;101194.03;5082375;28;20012;-81
2023/07/21 09:43:52;;;;;;;0.10;0.10;;;;;;;23.50;45.41;101196.19;5081303;28;20039;-80
2023/07/21 09:46:18;;;;;;;0.10;0.10;;;;;;;23.55;43.58;101197.63;5076668;28;20032;-78
2023/07/21 09:48:44;;;;;;;0.03;0.03;;;;;;;23.72;45.52;101196.44;5072934;28;20450;-78
2023/07/21 09:51:11;;;;;;;0.20;0.20;;;;;;;23.82;42.94;101190.41;5074529;28;20036;-78
2023/07/21 09:53:39;;;;;;;0.10;0.10;;;;;;;23.92;44.19;101182.53;5074516;28;20043;-81
2023/07/21 09:56:08;;;;;;;0.10;0.10;;;;;;;23.93;42.28;101178.84;5072310;28;20063;-79
2023/07/21 09:58:38;;;;;;;0.10;0.10;;;;;;;24.01;41.24;101181.84;5080254;28;20016;-82
2023/07/21 10:01:05;;;;;;;0.10;0.10;;;;;;;24.05;42.75;101180.66;5071592;28;20063;-79
2023/07/21 10:03:33;;;;;;;0.10;0.10;;;;;;;23.96;41.81;101175.91;5068915;28;20131;-79
2023/07/21 10:06:01;;;;;;;0.15;0.15;;;;;;;23.94;42.42;101172.44;5068527;28;20039;-82
2023/07/21 10:08:28;;;;;;;0.30;0.30;;;;;;;23.88;43.10;101182.69;5076050;28;20037;-80
2023/07/21 10:10:58;;;;;;;0.20;0.20;;;;;;;23.81;43.43;101172.41;5074147;28;20081;-81
2023/07/21 10:13:26;;;;;;;0.00;0.00;;;;;;;23.63;44.36;101178.16;5077796;28;20055;-81
2023/07/21 10:15:58;;;;;;;0.00;0.00;;;;;;;23.51;45.11;101184.41;5077521;28;20028;-79
2023/07/21 10:18:25;;;;;;;0.10;0.10;;;;;;;23.35;44.66;101187.31;5070247;28;20028;-82
2023/07/21 10:20:54;;;;;;;0.10;0.10;;;;;;;23.12;46.87;101208.63;5080967;28;20031;-79
2023/07/21 10:23:40;;;;;;;0.88;0.88;;;;;;;22.41;50.70;101219.53;5085301;28;20027;-78
2023/07/21 10:34:14;;;;;;;0.10;0.10;;;;;;;19.39;59.96;101243.81;5014183;28;20046;-85
2023/07/21 10:39:26;;;;;;;0.10;0.10;;;;;;;18.97;62.26;101255.75;5117746;27;20380;-80
2023/07/21 10:41:55;;;;;;;0.00;0.00;;;;;;;18.91;62.75;101251.53;5115249;28;20032;-78
2023/07/21 10:44:22;;;;;;;0.10;0.10;;;;;;;18.90;60.85;101242.63;5097063;28;20028;-79
2023/07/21 10:46:50;;;;;;;0.13;0.13;;;;;;;19.00;62.96;101232.28;5099163;28;20044;-78
2023/07/21 10:49:17;;;;;;;0.00;0.00;;;;;;;19.14;63.90;101234.28;5089636;28;20043;-77
2023/07/21 10:51:46;;;;;;;0.00;0.00;;;;;;;19.30;65.21;101231.72;5081450;28;20021;-78
2023/07/21 10:54:13;;;;;;;0.17;0.17;;;;;;;19.40;65.58;101235.66;5094568;28;20439;-78
2023/07/21 10:56:42;;;;;;;0.10;0.10;;;;;;;19.52;66.33;101235.97;5093205;28;20035;-79
2023/07/21 10:59:09;;;;;;;0.10;0.10;;;;;;;19.60;67.11;101236.47;5091311;28;20483;-79
2023/07/21 11:01:45;;;;;;;0.10;0.10;;;;;;;19.69;66.69;101233.28;5089717;28;20538;-78
2023/07/21 11:04:14;;;;;;;0.10;0.10;;;;;;;19.71;66.45;101233.19;5091601;28;20044;-79
2023/07/21 11:06:42;;;;;;;1.00;0.47;;;;;;;19.75;66.78;101234.78;5092881;28;20400;-79
2023/07/21 11:09:12;;;;;;;0.00;0.00;;;;;;;19.77;65.84;101248.16;5092986;28;20021;-78
2023/07/21 11:11:41;;;;;;;0.10;0.10;;;;;;;19.80;65.31;101247.97;5085055;28;20089;-79
2023/07/21 11:14:11;;;;;;;0.05;0.05;;;;;;;19.80;66.13;101247.97;5099918;28;20039;-78
2023/07/21 11:16:43;;;;;;;0.03;0.03;;;;;;;19.86;66.03;101253.06;5095735;28;20481;-79
2023/07/21 11:19:09;;;;;;;;;;;;;;;19.97;65.25;101239.91;5094055;28;20099;-79
2023/07/21 11:21:35;;;;;;;0.10;0.10;;;;;;;19.88;65.72;101241.28;5093876;28;19993;-80
2023/07/21 11:24:03;;;;;;;0.10;0.10;;;;;;;19.89;65.58;101239.47;5092839;28;20531;-79
2023/07/21 11:26:29;;;;;;;0.10;0.10;;;;;;;19.92;66.49;101236.59;5093918;28;20047;-80
2023/07/21 11:28:59;;;;;;;0.10;0.10;;;;;;;20.01;66.49;101248.69;5094706;28;20050;-81
2023/07/21 11:31:25;;;;;;;0.03;0.03;;;;;;;20.06;67.16;101246.63;5091640;28;20119;-81
2023/07/21 11:33:51;;;;;;;0.05;0.05;;;;;;;20.16;67.35;101249.69;5111389;23;20040;-86
2023/07/21 11:36:21;;;;;;;0.10;0.10;;;;;;;20.27;66.69;101243.75;5055136;28;20034;-86